NKS1604 KFLL-KTPA
Flight info
| Callsign | NKS1604 |
|---|---|
| Flight time | 0h 37m |
| Altitude | 24000 |
| Route | BNICE2 COREA BLFRG3 |
| Aircraft | A320/M-SDE3FGHIRWY/LB1 |
Departure
| Time | 2026-05-04 01:46 |
|---|---|
| Airport | Fort Lauderdale Hollywood International Airport (KFLL) |
Arrival
| Time | 2026-05-04 02:23 |
|---|---|
| Airport | Tampa International Airport (KTPA) |
| Time | Latitude | Longitude | Altitude | Speed | Heading |
|---|---|---|---|---|---|
| 2026-05-04 01:28 | 26.07342 | -80.14120 | 22 ft | 0 kts | 108° |
| 2026-05-04 01:34 | 26.07342 | -80.14121 | 22 ft | 2 kts | 108° |
| 2026-05-04 01:34 | 26.07348 | -80.14147 | 24 ft | 4 kts | 99° |
| 2026-05-04 01:34 | 26.07347 | -80.14175 | 25 ft | 4 kts | 59° |
| 2026-05-04 01:34 | 26.07329 | -80.14191 | 26 ft | 4 kts | 5° |
| 2026-05-04 01:35 | 26.07319 | -80.14192 | 24 ft | 1 kts | 0° |
| 2026-05-04 01:38 | 26.07322 | -80.14192 | 22 ft | 1 kts | 0° |
| 2026-05-04 01:38 | 26.07329 | -80.14192 | 22 ft | 1 kts | 0° |
| 2026-05-04 01:39 | 26.07365 | -80.14191 | 24 ft | 14 kts | 0° |
| 2026-05-04 01:39 | 26.07477 | -80.14228 | 25 ft | 17 kts | 302° |
| 2026-05-04 01:39 | 26.07487 | -80.14364 | 24 ft | 19 kts | 270° |
| 2026-05-04 01:39 | 26.07486 | -80.14517 | 26 ft | 20 kts | 270° |
| 2026-05-04 01:40 | 26.07487 | -80.14659 | 25 ft | 18 kts | 270° |
| 2026-05-04 01:40 | 26.07487 | -80.14814 | 21 ft | 22 kts | 270° |
| 2026-05-04 01:40 | 26.07488 | -80.14993 | 20 ft | 24 kts | 271° |
| 2026-05-04 01:40 | 26.07490 | -80.15179 | 18 ft | 25 kts | 270° |
| 2026-05-04 01:41 | 26.07490 | -80.15362 | 16 ft | 23 kts | 270° |
| 2026-05-04 01:41 | 26.07490 | -80.15515 | 18 ft | 16 kts | 270° |
| 2026-05-04 01:41 | 26.07492 | -80.15645 | 20 ft | 19 kts | 270° |
| 2026-05-04 01:41 | 26.07492 | -80.15818 | 20 ft | 23 kts | 271° |
| 2026-05-04 01:42 | 26.07494 | -80.15999 | 24 ft | 23 kts | 271° |
| 2026-05-04 01:42 | 26.07495 | -80.16165 | 25 ft | 22 kts | 270° |
| 2026-05-04 01:42 | 26.07495 | -80.16318 | 24 ft | 19 kts | 270° |
| 2026-05-04 01:42 | 26.07497 | -80.16465 | 24 ft | 20 kts | 271° |
| 2026-05-04 01:43 | 26.07498 | -80.16588 | 24 ft | 14 kts | 273° |
| 2026-05-04 01:43 | 26.07536 | -80.16641 | 23 ft | 9 kts | 345° |
| 2026-05-04 01:43 | 26.07578 | -80.16643 | 25 ft | 0 kts | 0° |
| 2026-05-04 01:45 | 26.07602 | -80.16644 | 22 ft | 12 kts | 358° |
| 2026-05-04 01:45 | 26.07689 | -80.16609 | 22 ft | 13 kts | 69° |
| 2026-05-04 01:45 | 26.07694 | -80.16558 | 23 ft | 3 kts | 90° |
| 2026-05-04 01:46 | 26.07693 | -80.16314 | 27 ft | 68 kts | 89° |
| 2026-05-04 01:46 | 26.07691 | -80.15531 | 16 ft | 130 kts | 90° |
| 2026-05-04 01:46 | 26.07692 | -80.14353 | 166 ft | 163 kts | 89° |
| 2026-05-04 01:46 | 26.07680 | -80.13053 | 723 ft | 171 kts | 89° |
| 2026-05-04 01:47 | 26.07736 | -80.11738 | 1415 ft | 173 kts | 76° |
| 2026-05-04 01:47 | 26.08052 | -80.10352 | 1813 ft | 196 kts | 74° |
| 2026-05-04 01:47 | 26.08429 | -80.08831 | 2087 ft | 211 kts | 73° |
| 2026-05-04 01:47 | 26.09191 | -80.07345 | 2429 ft | 235 kts | 41° |
| 2026-05-04 01:48 | 26.10683 | -80.06432 | 2877 ft | 257 kts | 19° |
| 2026-05-04 01:48 | 26.12407 | -80.05738 | 3614 ft | 270 kts | 17° |
| 2026-05-04 01:48 | 26.14219 | -80.05131 | 4497 ft | 274 kts | 7° |
| 2026-05-04 01:48 | 26.16124 | -80.05053 | 5397 ft | 276 kts | 350° |
| 2026-05-04 01:49 | 26.17967 | -80.05546 | 6266 ft | 277 kts | 336° |
| 2026-05-04 01:49 | 26.19787 | -80.06271 | 7135 ft | 279 kts | 333° |
| 2026-05-04 01:49 | 26.21459 | -80.07353 | 7974 ft | 278 kts | 317° |
| 2026-05-04 01:49 | 26.22770 | -80.08906 | 8875 ft | 274 kts | 301° |
| 2026-05-04 01:50 | 26.23641 | -80.10780 | 9769 ft | 272 kts | 288° |
| 2026-05-04 01:50 | 26.24345 | -80.12773 | 10350 ft | 286 kts | 288° |
| 2026-05-04 01:50 | 26.25100 | -80.14925 | 10615 ft | 307 kts | 288° |
| 2026-05-04 01:50 | 26.25639 | -80.17256 | 11165 ft | 314 kts | 277° |
| 2026-05-04 01:51 | 26.25980 | -80.19682 | 11807 ft | 319 kts | 277° |
| 2026-05-04 01:51 | 26.26326 | -80.22100 | 12523 ft | 322 kts | 277° |
| 2026-05-04 01:51 | 26.26683 | -80.24578 | 13265 ft | 325 kts | 277° |
| 2026-05-04 01:51 | 26.27042 | -80.27069 | 13991 ft | 327 kts | 277° |
| 2026-05-04 01:52 | 26.27403 | -80.29583 | 14641 ft | 329 kts | 277° |
| 2026-05-04 01:52 | 26.27765 | -80.32110 | 15294 ft | 331 kts | 276° |
| 2026-05-04 01:52 | 26.28128 | -80.34653 | 15943 ft | 333 kts | 276° |
| 2026-05-04 01:52 | 26.28491 | -80.37208 | 16591 ft | 335 kts | 276° |
| 2026-05-04 01:53 | 26.28855 | -80.39787 | 17242 ft | 337 kts | 276° |
| 2026-05-04 01:53 | 26.29220 | -80.42376 | 17895 ft | 339 kts | 276° |
| 2026-05-04 01:53 | 26.29588 | -80.44981 | 18514 ft | 341 kts | 276° |
| 2026-05-04 01:53 | 26.29954 | -80.47576 | 19070 ft | 343 kts | 275° |
| 2026-05-04 01:54 | 26.30325 | -80.50214 | 19654 ft | 345 kts | 275° |
| 2026-05-04 01:54 | 26.30698 | -80.52872 | 20248 ft | 347 kts | 275° |
| 2026-05-04 01:54 | 26.31072 | -80.55533 | 20878 ft | 347 kts | 275° |
| 2026-05-04 01:54 | 26.31445 | -80.58192 | 21496 ft | 348 kts | 275° |
| 2026-05-04 01:55 | 26.31821 | -80.60867 | 22072 ft | 350 kts | 274° |
| 2026-05-04 01:55 | 26.32199 | -80.63558 | 22626 ft | 352 kts | 274° |
| 2026-05-04 01:55 | 26.32579 | -80.66263 | 23192 ft | 354 kts | 274° |
| 2026-05-04 01:55 | 26.32962 | -80.68991 | 23701 ft | 356 kts | 274° |
| 2026-05-04 01:56 | 26.33338 | -80.71693 | 23942 ft | 357 kts | 274° |
| 2026-05-04 01:56 | 26.33720 | -80.74423 | 24030 ft | 353 kts | 274° |
| 2026-05-04 01:56 | 26.34096 | -80.77086 | 24055 ft | 343 kts | 274° |
| 2026-05-04 01:56 | 26.34464 | -80.79709 | 24057 ft | 341 kts | 274° |
| 2026-05-04 01:57 | 26.34823 | -80.82314 | 24057 ft | 340 kts | 274° |
| 2026-05-04 01:57 | 26.35179 | -80.84919 | 24057 ft | 340 kts | 274° |
| 2026-05-04 01:57 | 26.35538 | -80.87524 | 24057 ft | 340 kts | 274° |
| 2026-05-04 01:57 | 26.35956 | -80.90123 | 24057 ft | 343 kts | 279° |
| 2026-05-04 01:58 | 26.36855 | -80.92619 | 24058 ft | 354 kts | 292° |
| 2026-05-04 01:58 | 26.38336 | -80.94874 | 24055 ft | 368 kts | 305° |
| 2026-05-04 01:58 | 26.40213 | -80.96860 | 24059 ft | 372 kts | 308° |
| 2026-05-04 01:58 | 26.42106 | -80.98832 | 24060 ft | 373 kts | 308° |
| 2026-05-04 01:59 | 26.43998 | -81.00812 | 24062 ft | 373 kts | 308° |
| 2026-05-04 01:59 | 26.45869 | -81.02773 | 24063 ft | 373 kts | 308° |
| 2026-05-04 01:59 | 26.47758 | -81.04756 | 24067 ft | 373 kts | 308° |
| 2026-05-04 01:59 | 26.49650 | -81.06743 | 24071 ft | 373 kts | 308° |
| 2026-05-04 02:00 | 26.51539 | -81.08731 | 24072 ft | 373 kts | 308° |
| 2026-05-04 02:00 | 26.53423 | -81.10719 | 24073 ft | 373 kts | 307° |
| 2026-05-04 02:00 | 26.55306 | -81.12709 | 24073 ft | 373 kts | 307° |
| 2026-05-04 02:00 | 26.57193 | -81.14701 | 24074 ft | 373 kts | 307° |
| 2026-05-04 02:01 | 26.59076 | -81.16690 | 24072 ft | 373 kts | 307° |
| 2026-05-04 02:01 | 26.60958 | -81.18677 | 24102 ft | 373 kts | 307° |
| 2026-05-04 02:01 | 26.62847 | -81.20669 | 24097 ft | 372 kts | 307° |
| 2026-05-04 02:01 | 26.64561 | -81.22785 | 24096 ft | 364 kts | 300° |
| 2026-05-04 02:02 | 26.66148 | -81.24989 | 24093 ft | 364 kts | 300° |
| 2026-05-04 02:02 | 26.67734 | -81.27194 | 24090 ft | 364 kts | 300° |
| 2026-05-04 02:02 | 26.69321 | -81.29402 | 24096 ft | 364 kts | 300° |
| 2026-05-04 02:02 | 26.70883 | -81.31577 | 24091 ft | 364 kts | 300° |
| 2026-05-04 02:03 | 26.72467 | -81.33784 | 24088 ft | 364 kts | 300° |
| 2026-05-04 02:03 | 26.74053 | -81.35991 | 24085 ft | 364 kts | 300° |
| 2026-05-04 02:03 | 26.75642 | -81.38197 | 24083 ft | 364 kts | 300° |
| 2026-05-04 02:03 | 26.77233 | -81.40405 | 24081 ft | 364 kts | 300° |
| 2026-05-04 02:04 | 26.78824 | -81.42617 | 24082 ft | 364 kts | 300° |
| 2026-05-04 02:04 | 26.80409 | -81.44822 | 24080 ft | 364 kts | 300° |
| 2026-05-04 02:04 | 26.81996 | -81.47034 | 24079 ft | 364 kts | 300° |
| 2026-05-04 02:04 | 26.83559 | -81.49218 | 24078 ft | 364 kts | 300° |
| 2026-05-04 02:05 | 26.85140 | -81.51432 | 24078 ft | 364 kts | 300° |
| 2026-05-04 02:05 | 26.86721 | -81.53646 | 24078 ft | 364 kts | 300° |
| 2026-05-04 02:05 | 26.88307 | -81.55862 | 24078 ft | 364 kts | 300° |
| 2026-05-04 02:05 | 26.89893 | -81.58072 | 24078 ft | 364 kts | 300° |
| 2026-05-04 02:06 | 26.91487 | -81.60292 | 24081 ft | 364 kts | 300° |
| 2026-05-04 02:06 | 26.93075 | -81.62507 | 24118 ft | 364 kts | 300° |
| 2026-05-04 02:06 | 26.94658 | -81.64720 | 24115 ft | 364 kts | 300° |
| 2026-05-04 02:06 | 26.96260 | -81.66971 | 24092 ft | 374 kts | 300° |
| 2026-05-04 02:07 | 26.97867 | -81.69237 | 24087 ft | 378 kts | 300° |
| 2026-05-04 02:07 | 26.99512 | -81.71549 | 24090 ft | 379 kts | 301° |
| 2026-05-04 02:07 | 27.01160 | -81.73859 | 24092 ft | 379 kts | 301° |
| 2026-05-04 02:07 | 27.02809 | -81.76167 | 24092 ft | 380 kts | 301° |
| 2026-05-04 02:08 | 27.04461 | -81.78481 | 24093 ft | 379 kts | 301° |
| 2026-05-04 02:08 | 27.06108 | -81.80792 | 24097 ft | 379 kts | 301° |
| 2026-05-04 02:08 | 27.07765 | -81.83096 | 24096 ft | 381 kts | 303° |
| 2026-05-04 02:08 | 27.09769 | -81.85125 | 24098 ft | 393 kts | 314° |
| 2026-05-04 02:09 | 27.11954 | -81.86977 | 24102 ft | 393 kts | 314° |
| 2026-05-04 02:09 | 27.14125 | -81.88802 | 23809 ft | 387 kts | 314° |
| 2026-05-04 02:09 | 27.16308 | -81.90641 | 22718 ft | 398 kts | 315° |
| 2026-05-04 02:09 | 27.18547 | -81.92539 | 21517 ft | 409 kts | 315° |
| 2026-05-04 02:10 | 27.20851 | -81.94499 | 20238 ft | 419 kts | 316° |
| 2026-05-04 02:10 | 27.23172 | -81.96470 | 19096 ft | 426 kts | 316° |
| 2026-05-04 02:10 | 27.25535 | -81.98463 | 18220 ft | 424 kts | 316° |
| 2026-05-04 02:10 | 27.27884 | -82.00440 | 17277 ft | 420 kts | 317° |
| 2026-05-04 02:11 | 27.30209 | -82.02398 | 16427 ft | 415 kts | 317° |
| 2026-05-04 02:11 | 27.32506 | -82.04339 | 15633 ft | 410 kts | 317° |
| 2026-05-04 02:11 | 27.34768 | -82.06258 | 14897 ft | 406 kts | 317° |
| 2026-05-04 02:11 | 27.37010 | -82.08164 | 14224 ft | 402 kts | 317° |
| 2026-05-04 02:12 | 27.39196 | -82.10094 | 13538 ft | 397 kts | 316° |
| 2026-05-04 02:12 | 27.41320 | -82.12060 | 12798 ft | 393 kts | 316° |
| 2026-05-04 02:12 | 27.43406 | -82.14036 | 12073 ft | 389 kts | 316° |
| 2026-05-04 02:12 | 27.45426 | -82.16028 | 11346 ft | 384 kts | 314° |
| 2026-05-04 02:13 | 27.47360 | -82.18090 | 10613 ft | 380 kts | 313° |
| 2026-05-04 02:13 | 27.49231 | -82.20180 | 9860 ft | 377 kts | 312° |
| 2026-05-04 02:13 | 27.51070 | -82.22269 | 9016 ft | 374 kts | 313° |
| 2026-05-04 02:13 | 27.52893 | -82.24332 | 8485 ft | 365 kts | 313° |
| 2026-05-04 02:14 | 27.54645 | -82.26289 | 8359 ft | 345 kts | 313° |
| 2026-05-04 02:14 | 27.55760 | -82.27523 | 8275 ft | 334 kts | 314° |
| 2026-05-04 02:14 | 27.57387 | -82.29311 | 8152 ft | 318 kts | 314° |
| 2026-05-04 02:14 | 27.58940 | -82.31009 | 8029 ft | 305 kts | 314° |
| 2026-05-04 02:15 | 27.60432 | -82.32639 | 7905 ft | 293 kts | 314° |
| 2026-05-04 02:15 | 27.61864 | -82.34206 | 7732 ft | 281 kts | 314° |
| 2026-05-04 02:15 | 27.63257 | -82.35731 | 7152 ft | 278 kts | 314° |
| 2026-05-04 02:15 | 27.64639 | -82.37247 | 6533 ft | 277 kts | 314° |
| 2026-05-04 02:16 | 27.66012 | -82.38757 | 5878 ft | 275 kts | 315° |
| 2026-05-04 02:16 | 27.67379 | -82.40266 | 5252 ft | 274 kts | 314° |
| 2026-05-04 02:16 | 27.68485 | -82.41969 | 4800 ft | 265 kts | 297° |
| 2026-05-04 02:16 | 27.69087 | -82.43861 | 4431 ft | 256 kts | 282° |
| 2026-05-04 02:17 | 27.69228 | -82.45823 | 4091 ft | 248 kts | 272° |
| 2026-05-04 02:17 | 27.69609 | -82.47696 | 3763 ft | 245 kts | 304° |
| 2026-05-04 02:17 | 27.70848 | -82.48975 | 3532 ft | 243 kts | 332° |
| 2026-05-04 02:17 | 27.72361 | -82.49771 | 3362 ft | 236 kts | 340° |
| 2026-05-04 02:18 | 27.73863 | -82.50397 | 3243 ft | 225 kts | 342° |
| 2026-05-04 02:18 | 27.75307 | -82.50993 | 3150 ft | 215 kts | 342° |
| 2026-05-04 02:18 | 27.76670 | -82.51592 | 3062 ft | 204 kts | 341° |
| 2026-05-04 02:18 | 27.77966 | -82.52194 | 2976 ft | 200 kts | 340° |
| 2026-05-04 02:19 | 27.79239 | -82.52807 | 2897 ft | 199 kts | 340° |
| 2026-05-04 02:19 | 27.80483 | -82.53421 | 2842 ft | 190 kts | 339° |
| 2026-05-04 02:19 | 27.81654 | -82.54012 | 2735 ft | 179 kts | 339° |
| 2026-05-04 02:19 | 27.82762 | -82.54531 | 2649 ft | 166 kts | 348° |
| 2026-05-04 02:20 | 27.83868 | -82.54659 | 2450 ft | 160 kts | 6° |
| 2026-05-04 02:20 | 27.84949 | -82.54622 | 2231 ft | 150 kts | 6° |
| 2026-05-04 02:20 | 27.85967 | -82.54588 | 2045 ft | 144 kts | 7° |
| 2026-05-04 02:20 | 27.86958 | -82.54555 | 1854 ft | 142 kts | 9° |
| 2026-05-04 02:21 | 27.87949 | -82.54520 | 1667 ft | 142 kts | 9° |
| 2026-05-04 02:21 | 27.88942 | -82.54487 | 1473 ft | 142 kts | 9° |
| 2026-05-04 02:21 | 27.89919 | -82.54453 | 1289 ft | 141 kts | 9° |
| 2026-05-04 02:21 | 27.90907 | -82.54420 | 1097 ft | 142 kts | 7° |
| 2026-05-04 02:22 | 27.91880 | -82.54387 | 930 ft | 140 kts | 8° |
| 2026-05-04 02:22 | 27.92864 | -82.54353 | 754 ft | 143 kts | 8° |
| 2026-05-04 02:22 | 27.93862 | -82.54319 | 556 ft | 143 kts | 7° |
| 2026-05-04 02:22 | 27.94857 | -82.54303 | 446 ft | 143 kts | 7° |
| 2026-05-04 02:23 | 27.95840 | -82.54263 | 227 ft | 140 kts | 7° |
| 2026-05-04 02:23 | 27.96758 | -82.54225 | 53 ft | 122 kts | 7° |
| 2026-05-04 02:23 | 27.97505 | -82.54185 | 35 ft | 88 kts | 359° |
| 2026-05-04 02:23 | 27.97947 | -82.54179 | 35 ft | 44 kts | 2° |
| 2026-05-04 02:24 | 27.98210 | -82.54150 | 40 ft | 22 kts | 26° |
| 2026-05-04 02:24 | 27.98321 | -82.54060 | 40 ft | 19 kts | 59° |
| 2026-05-04 02:24 | 27.85618 | -82.54600 | 2198 ft | 146 kts | 7° |
| 2026-05-04 02:24 | 27.97047 | -82.54203 | 45 ft | 112 kts | 2° |
| 2026-05-04 02:25 | 27.97175 | -82.54198 | 41 ft | 107 kts | 1° |
| 2026-05-04 02:25 | 27.97535 | -82.54186 | 33 ft | 96 kts | 359° |